Onoway, Canada
Current Conditions -  °F | °C
As of 8:00 PM on Sunday 19 Oct 2014 (Local Time) from CWSE Reporting Station
Broken Clouds Broken Clouds  
Wind Chill: 52°   Ceiling: 5400
Heat Index: 52°   Visibility: 15mi
Dew Point: 38°   Wind: 6mph
Humidity: 58%   Direction: 110°ESE
Pressure: 29.63"   Gusts: NA
Location:  53.7°N, 114.18°W
Report Text: CWSE 200200Z 11005KT 15SM BKN054 11/03 A2963 RMK SLP033 LAST OBS/NEXT 201100Z T01120031 WSI/SWOB
Loading
Personal Weather Stations






























Interactive Weather Map
Tropical Storm Tracking
New forecast layout! Learn more

10-Day Weather Forecast

Advertisements
Track Severe Weather on mobile